Time;durP1;ratioP1;P1;durP2;ratioP2;P2;SDS_P1;SDS_P2;PMS_P1;PMS_P2;Temp;Humidity;BMP_temperature;BMP_pressure;BME280_temperature;BME280_humidity;BME280_pressure;Samples;Min_cycle;Max_cycle;Signal;HPM_P1;HPM_P2
2021/04/29 00:01:59;;;;;;;;;;;11.30;99.90;;;;;;5091847;28;19908;-73
2021/04/29 00:04:25;;;;;;;;;;;11.20;99.90;;;;;;5091478;28;19912;-73
2021/04/29 00:06:50;;;;;;;;;;;11.20;99.90;;;;;;5090309;28;19912;-73
2021/04/29 00:09:16;;;;;;;;;;;11.20;99.90;;;;;;5091773;28;20002;-72
2021/04/29 00:11:42;;;;;;;;;;;11.10;99.90;;;;;;5091623;28;20387;-73
2021/04/29 00:14:08;;;;;;;;;;;11.10;99.90;;;;;;5091642;28;20281;-72
2021/04/29 00:16:34;;;;;;;;;;;11.10;99.90;;;;;;5090604;28;19912;-73
2021/04/29 00:19:00;;;;;;;;;;;11.00;99.90;;;;;;5091281;28;19991;-73
2021/04/29 00:21:25;;;;;;;;;;;11.00;99.90;;;;;;5091609;28;20346;-72
2021/04/29 00:23:51;;;;;;;;;;;11.00;99.90;;;;;;5091171;28;19913;-72
2021/04/29 00:26:16;;;;;;;;;;;10.90;99.90;;;;;;5090718;28;19911;-73
2021/04/29 00:28:42;;;;;;;;;;;10.90;99.90;;;;;;5090272;28;19995;-73
2021/04/29 00:31:07;;;;;;;;;;;10.90;99.90;;;;;;5091199;28;19976;-72
2021/04/29 00:33:33;;;;;;;;;;;10.90;99.90;;;;;;5091294;28;19919;-73
2021/04/29 00:36:00;;;;;;;;;;;10.90;99.90;;;;;;5090224;28;20299;-72
2021/04/29 00:38:29;;;;;;;;;;;10.80;99.90;;;;;;5090962;28;19961;-72
2021/04/29 00:40:55;;;;;;;;;;;10.90;99.90;;;;;;5091139;28;19919;-72
2021/04/29 00:43:20;;;;;;;;;;;10.80;99.90;;;;;;5091284;28;20365;-72
2021/04/29 00:45:46;;;;;;;;;;;10.80;99.90;;;;;;5090439;28;19908;-72
2021/04/29 00:48:12;;;;;;;;;;;10.80;99.90;;;;;;5089788;28;20392;-72
2021/04/29 00:50:37;;;;;;;;;;;10.90;99.90;;;;;;5091276;28;20411;-72
2021/04/29 00:53:03;;;;;;;;;;;10.90;99.90;;;;;;5090686;28;19947;-73
2021/04/29 00:55:28;;;;;;;;;;;10.90;99.90;;;;;;5091078;28;20281;-72
2021/04/29 00:57:54;;;;;;;;;;;10.90;99.90;;;;;;5089094;28;19908;-73
2021/04/29 01:00:20;;;;;;;;;;;11.00;99.90;;;;;;5090999;28;19952;-72
2021/04/29 01:02:51;;;;;;;;;;;11.00;99.90;;;;;;5090877;28;19916;-72
2021/04/29 01:05:24;;;;;;;;;;;11.00;99.90;;;;;;5091064;28;19912;-72
2021/04/29 01:07:59;;;;;;;;;;;11.10;99.90;;;;;;5090014;28;19934;-73
2021/04/29 01:10:37;;;;;;;;;;;11.10;99.90;;;;;;5091040;28;19930;-72
2021/04/29 01:13:12;;;;;;;;;;;11.10;99.90;;;;;;5094782;28;20017;-72
2021/04/29 01:15:40;;;;;;;;;;;11.10;99.90;;;;;;5094376;28;19912;-72
2021/04/29 01:18:06;;;;;;;;;;;11.10;99.90;;;;;;5093562;28;19943;-72
2021/04/29 01:20:45;;;;;;;;;;;11.10;99.90;;;;;;5090525;28;20399;-72
2021/04/29 01:23:15;;;;;;;;;;;11.00;99.90;;;;;;5094698;28;20007;-72
2021/04/29 01:25:42;;;;;;;;;;;11.00;99.90;;;;;;5093627;28;19908;-73
2021/04/29 01:28:07;;;;;;;;;;;11.00;99.90;;;;;;5093702;28;20404;-72
2021/04/29 01:30:34;;;;;;;;;;;11.00;99.90;;;;;;5094774;28;19954;-73
2021/04/29 01:32:59;;;;;;;;;;;11.00;99.90;;;;;;5094597;28;19908;-72
2021/04/29 01:35:25;;;;;;;;;;;11.00;99.90;;;;;;5094529;28;19915;-72
2021/04/29 01:37:52;;;;;;;;;;;11.00;99.90;;;;;;5093318;28;19916;-72
2021/04/29 01:40:17;;;;;;;;;;;11.00;99.90;;;;;;5094252;28;20262;-72
2021/04/29 01:42:43;;;;;;;;;;;11.00;99.90;;;;;;5094275;28;19912;-72
2021/04/29 01:45:09;;;;;;;;;;;11.00;99.90;;;;;;5094348;28;19908;-72
2021/04/29 01:47:35;;;;;;;;;;;11.00;99.90;;;;;;5092808;28;19953;-72
2021/04/29 01:50:02;;;;;;;;;;;10.90;99.90;;;;;;5094130;28;20285;-72
2021/04/29 01:52:28;;;;;;;;;;;10.90;99.90;;;;;;5093992;28;19931;-72
2021/04/29 01:54:54;;;;;;;;;;;11.00;99.90;;;;;;5092616;28;19908;-73
2021/04/29 01:57:20;;;;;;;;;;;10.90;99.90;;;;;;5092148;28;19908;-72
2021/04/29 01:59:45;;;;;;;;;;;10.90;99.90;;;;;;5093845;28;19908;-72
2021/04/29 02:02:11;;;;;;;;;;;10.90;99.90;;;;;;5093946;28;19954;-71
2021/04/29 02:04:36;;;;;;;;;;;10.90;99.90;;;;;;5093920;28;20016;-72
2021/04/29 02:07:02;;;;;;;;;;;10.90;99.90;;;;;;5093477;28;19995;-72
2021/04/29 02:09:27;;;;;;;;;;;10.90;99.90;;;;;;5093426;28;20365;-72
2021/04/29 02:11:55;;;;;;;;;;;10.90;99.90;;;;;;5093888;28;19916;-72
2021/04/29 02:14:29;;;;;;;;;;;10.90;99.90;;;;;;5093812;28;20369;-72
2021/04/29 02:16:57;;;;;;;;;;;10.90;99.90;;;;;;5092634;28;20000;-72
2021/04/29 02:19:24;;;;;;;;;;;10.90;99.90;;;;;;5093754;28;19915;-72
2021/04/29 02:21:50;;;;;;;;;;;10.90;99.90;;;;;;5093073;28;19961;-72
2021/04/29 02:24:16;;;;;;;;;;;10.90;99.90;;;;;;5093013;28;19966;-72
2021/04/29 02:26:42;;;;;;;;;;;10.90;99.90;;;;;;5092585;28;19912;-72
2021/04/29 02:29:08;;;;;;;;;;;10.90;99.90;;;;;;5092397;28;19916;-72
2021/04/29 02:31:34;;;;;;;;;;;10.90;99.90;;;;;;5093422;28;19912;-72
2021/04/29 02:34:01;;;;;;;;;;;10.80;99.90;;;;;;5092086;28;19912;-72
2021/04/29 02:36:27;;;;;;;;;;;10.80;99.90;;;;;;5091090;28;19908;-72
2021/04/29 02:38:53;;;;;;;;;;;10.80;99.90;;;;;;5092772;28;20372;-72
2021/04/29 02:41:19;;;;;;;;;;;10.80;99.90;;;;;;5093302;28;19908;-72
2021/04/29 02:43:45;;;;;;;;;;;10.80;99.90;;;;;;5093010;28;20003;-73
2021/04/29 02:46:10;;;;;;;;;;;10.80;99.90;;;;;;5092096;28;19912;-72
2021/04/29 02:48:36;;;;;;;;;;;10.80;99.90;;;;;;5093160;28;20437;-72
2021/04/29 02:51:02;;;;;;;;;;;10.80;99.90;;;;;;5093010;28;19999;-72
2021/04/29 02:53:27;;;;;;;;;;;10.80;99.90;;;;;;5092667;28;20398;-72
2021/04/29 02:55:53;;;;;;;;;;;10.80;99.90;;;;;;5092140;28;19916;-72
2021/04/29 02:58:19;;;;;;;;;;;10.80;99.90;;;;;;5091767;28;19912;-72
2021/04/29 03:00:47;;;;;;;;;;;10.80;99.90;;;;;;5092803;28;20025;-73
2021/04/29 03:03:12;;;;;;;;;;;10.80;99.90;;;;;;5092687;28;19939;-72
2021/04/29 03:05:38;;;;;;;;;;;10.70;99.90;;;;;;5090774;28;19982;-73
2021/04/29 03:08:04;;;;;;;;;;;10.70;99.90;;;;;;5090486;28;19967;-72
2021/04/29 03:10:30;;;;;;;;;;;10.70;99.90;;;;;;5092790;28;19908;-72
2021/04/29 03:12:57;;;;;;;;;;;10.70;99.90;;;;;;5092674;28;19922;-73
2021/04/29 03:15:22;;;;;;;;;;;10.70;99.90;;;;;;5092605;28;20231;-72
2021/04/29 03:17:48;;;;;;;;;;;10.70;99.90;;;;;;5091597;28;19912;-72
2021/04/29 03:20:14;;;;;;;;;;;10.70;99.90;;;;;;5092620;28;19935;-72
2021/04/29 03:22:39;;;;;;;;;;;10.70;99.90;;;;;;5092564;28;19908;-72
2021/04/29 03:25:05;;;;;;;;;;;10.60;99.90;;;;;;5092372;28;19961;-72
2021/04/29 03:27:31;;;;;;;;;;;10.70;99.90;;;;;;5090336;28;19909;-73
2021/04/29 03:29:56;;;;;;;;;;;10.70;99.90;;;;;;5092066;28;20389;-72
2021/04/29 03:32:22;;;;;;;;;;;10.60;99.90;;;;;;5092041;28;19960;-72
2021/04/29 03:34:48;;;;;;;;;;;10.60;99.90;;;;;;5091340;28;20361;-72
2021/04/29 03:37:13;;;;;;;;;;;10.60;99.90;;;;;;5090990;28;19927;-72
2021/04/29 03:39:39;;;;;;;;;;;10.50;99.90;;;;;;5091910;28;19923;-72
2021/04/29 03:42:07;;;;;;;;;;;10.50;99.90;;;;;;5092346;28;19915;-72
2021/04/29 03:44:34;;;;;;;;;;;10.40;99.90;;;;;;5091925;28;19923;-72
2021/04/29 03:46:59;;;;;;;;;;;10.40;99.90;;;;;;5091030;28;19915;-72
2021/04/29 03:49:25;;;;;;;;;;;10.40;99.90;;;;;;5091805;28;19908;-72
2021/04/29 03:51:50;;;;;;;;;;;10.40;99.90;;;;;;5091761;28;20361;-72
2021/04/29 03:54:16;;;;;;;;;;;10.40;99.90;;;;;;5091458;28;19908;-73
2021/04/29 03:56:42;;;;;;;;;;;10.30;99.90;;;;;;5091176;28;20276;-72
2021/04/29 03:59:07;;;;;;;;;;;10.30;99.90;;;;;;5090653;28;20327;-72
2021/04/29 04:01:33;;;;;;;;;;;10.20;99.90;;;;;;5091740;28;19912;-72
2021/04/29 04:03:58;;;;;;;;;;;10.20;99.90;;;;;;5090268;28;19915;-73
2021/04/29 04:06:23;;;;;;;;;;;10.10;99.90;;;;;;5090416;28;19908;-72
2021/04/29 04:08:49;;;;;;;;;;;10.10;99.90;;;;;;5091244;28;19915;-72
2021/04/29 04:11:14;;;;;;;;;;;10.10;99.90;;;;;;5092390;28;19908;-72
2021/04/29 04:13:40;;;;;;;;;;;10.00;99.90;;;;;;5090645;28;19950;-72
2021/04/29 04:16:05;;;;;;;;;;;10.00;99.90;;;;;;5090640;28;19916;-72
2021/04/29 04:18:31;;;;;;;;;;;10.00;99.90;;;;;;5091794;28;19908;-72
2021/04/29 04:20:56;;;;;;;;;;;9.90;99.90;;;;;;5091306;28;19912;-73
2021/04/29 04:23:22;;;;;;;;;;;10.00;99.90;;;;;;5091076;28;19912;-73
2021/04/29 04:25:47;;;;;;;;;;;9.90;99.90;;;;;;5090484;28;19915;-73
2021/04/29 04:28:13;;;;;;;;;;;9.90;99.90;;;;;;5089069;28;19955;-73
2021/04/29 04:30:38;;;;;;;;;;;9.90;99.90;;;;;;5091078;28;20369;-73
2021/04/29 04:33:04;;;;;;;;;;;9.90;99.90;;;;;;5089622;28;19909;-73
2021/04/29 04:35:30;;;;;;;;;;;9.90;99.90;;;;;;5090898;28;20400;-73
2021/04/29 04:37:55;;;;;;;;;;;9.80;99.90;;;;;;5089903;28;20006;-72
2021/04/29 04:40:20;;;;;;;;;;;9.80;99.90;;;;;;5091175;28;20396;-72
2021/04/29 04:42:46;;;;;;;;;;;9.90;99.90;;;;;;5089718;28;19970;-72
2021/04/29 04:45:12;;;;;;;;;;;9.90;99.90;;;;;;5093151;28;19912;-73
2021/04/29 04:47:37;;;;;;;;;;;9.90;99.90;;;;;;5096956;28;19908;-73
2021/04/29 04:50:03;;;;;;;;;;;10.00;99.90;;;;;;5097697;28;20293;-73
2021/04/29 04:52:29;;;;;;;;;;;10.00;99.90;;;;;;5096271;28;19950;-73
2021/04/29 04:54:54;;;;;;;;;;;10.00;99.90;;;;;;5097509;28;19958;-73
2021/04/29 04:57:20;;;;;;;;;;;10.00;99.90;;;;;;5095681;28;20373;-73
2021/04/29 04:59:45;;;;;;;;;;;10.10;99.90;;;;;;5097547;28;19915;-73
2021/04/29 05:02:11;;;;;;;;;;;10.10;99.90;;;;;;5097704;28;19915;-73
2021/04/29 05:04:37;;;;;;;;;;;10.10;99.90;;;;;;5097488;28;19912;-73
2021/04/29 05:07:05;;;;;;;;;;;10.10;99.90;;;;;;5096690;28;20282;-73
2021/04/29 05:09:31;;;;;;;;;;;10.10;99.90;;;;;;5097435;28;19915;-73
2021/04/29 05:11:57;;;;;;;;;;;10.10;99.90;;;;;;5097771;28;19908;-73
2021/04/29 05:14:23;;;;;;;;;;;10.00;99.90;;;;;;5096281;28;19939;-73
2021/04/29 05:16:48;;;;;;;;;;;10.10;99.90;;;;;;5095272;28;20345;-73
2021/04/29 05:19:14;;;;;;;;;;;10.00;99.90;;;;;;5097148;28;19994;-73
2021/04/29 05:21:39;;;;;;;;;;;10.10;99.90;;;;;;5097620;28;19908;-73
2021/04/29 05:24:05;;;;;;;;;;;10.00;99.90;;;;;;5096862;28;19912;-72
2021/04/29 05:26:30;;;;;;;;;;;10.00;99.90;;;;;;5095639;28;19954;-72
2021/04/29 05:28:56;;;;;;;;;;;10.10;99.90;;;;;;5096413;28;19908;-72
2021/04/29 05:31:21;;;;;;;;;;;10.10;99.90;;;;;;5097315;28;20258;-73
2021/04/29 05:33:47;;;;;;;;;;;10.10;99.90;;;;;;5097391;28;19954;-73
2021/04/29 05:36:12;;;;;;;;;;;10.20;99.90;;;;;;5096455;28;20273;-72
2021/04/29 05:38:38;;;;;;;;;;;10.20;99.90;;;;;;5097019;28;19959;-72
2021/04/29 05:41:03;;;;;;;;;;;10.20;99.90;;;;;;5096202;28;20366;-73
2021/04/29 05:43:29;;;;;;;;;;;10.20;99.90;;;;;;5097233;28;19916;-73
2021/04/29 05:45:55;;;;;;;;;;;10.20;99.90;;;;;;5096259;28;19918;-73
2021/04/29 05:48:20;;;;;;;;;;;10.20;99.90;;;;;;5097196;28;20042;-73
2021/04/29 05:50:46;;;;;;;;;;;10.20;99.90;;;;;;5095822;28;19908;-72
2021/04/29 05:53:11;;;;;;;;;;;10.20;99.90;;;;;;5073888;28;19909;-72
2021/04/29 05:55:37;;;;;;;;;;;10.30;99.90;;;;;;5094265;28;19920;-72
2021/04/29 05:58:03;;;;;;;;;;;10.30;99.90;;;;;;5090849;28;19912;-72
2021/04/29 06:00:28;;;;;;;;;;;10.30;99.90;;;;;;5093959;28;19908;-72
2021/04/29 06:02:55;;;;;;;;;;;10.30;99.90;;;;;;5093816;28;20331;-72
2021/04/29 06:05:21;;;;;;;;;;;10.30;99.90;;;;;;5093826;28;19987;-72
2021/04/29 06:07:53;;;;;;;;;;;10.40;99.90;;;;;;5092650;28;20284;-72
2021/04/29 06:10:18;;;;;;;;;;;10.50;99.90;;;;;;5093720;28;20017;-73
2021/04/29 06:12:44;;;;;;;;;;;10.50;99.90;;;;;;5093976;28;19929;-73
2021/04/29 06:15:09;;;;;;;;;;;10.50;99.90;;;;;;5093741;28;19987;-73
2021/04/29 06:17:35;;;;;;;;;;;10.60;99.90;;;;;;5092265;28;20377;-73
2021/04/29 06:20:00;;;;;;;;;;;10.60;99.90;;;;;;5093885;28;19991;-72
2021/04/29 06:22:26;;;;;;;;;;;10.70;99.90;;;;;;5093698;28;19908;-72
2021/04/29 06:24:51;;;;;;;;;;;10.70;99.90;;;;;;5093353;28;19934;-72
2021/04/29 06:27:17;;;;;;;;;;;10.70;99.90;;;;;;5091512;28;19908;-72
2021/04/29 06:29:42;;;;;;;;;;;10.80;99.90;;;;;;5093316;28;19914;-72
2021/04/29 06:32:08;;;;;;;;;;;10.80;99.90;;;;;;5093233;28;20361;-72
2021/04/29 06:34:33;;;;;;;;;;;10.90;99.90;;;;;;5093305;28;20383;-72
2021/04/29 06:36:59;;;;;;;;;;;10.90;99.90;;;;;;5092154;28;20012;-72
2021/04/29 06:39:25;;;;;;;;;;;10.90;99.90;;;;;;5091852;28;19912;-72
2021/04/29 06:41:50;;;;;;;;;;;11.10;99.90;;;;;;5093304;28;19920;-72
2021/04/29 06:44:16;;;;;;;;;;;11.10;99.90;;;;;;5093210;28;20015;-72
2021/04/29 06:46:43;;;;;;;;;;;11.10;99.90;;;;;;5091832;28;19915;-72
2021/04/29 06:49:08;;;;;;;;;;;11.20;99.90;;;;;;5092620;28;20344;-72
2021/04/29 06:51:34;;;;;;;;;;;11.40;99.90;;;;;;5091816;28;19999;-72
2021/04/29 06:53:59;;;;;;;;;;;11.50;99.90;;;;;;5091451;28;19915;-72
2021/04/29 06:56:25;;;;;;;;;;;11.50;99.90;;;;;;5091819;28;19908;-72
2021/04/29 06:58:50;;;;;;;;;;;11.60;99.90;;;;;;5091988;28;19908;-72
2021/04/29 07:01:16;;;;;;;;;;;11.70;99.90;;;;;;5092733;28;19912;-72
2021/04/29 07:03:41;;;;;;;;;;;12.00;99.90;;;;;;5091215;28;19965;-72
2021/04/29 07:06:07;;;;;;;;;;;12.30;99.90;;;;;;5091594;28;19909;-72
2021/04/29 07:08:32;;;;;;;;;;;12.50;99.90;;;;;;5091331;28;20274;-72
2021/04/29 07:10:58;;;;;;;;;;;12.50;99.90;;;;;;5092875;28;20006;-73
2021/04/29 07:13:23;;;;;;;;;;;12.70;99.90;;;;;;5091517;28;19912;-72
2021/04/29 07:15:49;;;;;;;;;;;12.70;99.90;;;;;;5091422;28;20383;-73
2021/04/29 07:18:14;;;;;;;;;;;12.90;99.90;;;;;;5092606;28;19964;-72
2021/04/29 07:20:41;;;;;;;;;;;13.00;99.90;;;;;;5091208;28;19931;-72
2021/04/29 07:23:06;;;;;;;;;;;13.20;99.90;;;;;;5092420;28;19912;-72
2021/04/29 07:25:32;;;;;;;;;;;13.40;99.90;;;;;;5092072;28;20472;-73
2021/04/29 07:27:58;;;;;;;;;;;13.70;99.90;;;;;;5088829;28;19908;-73
2021/04/29 07:30:24;;;;;;;;;;;14.00;99.90;;;;;;5092055;28;19918;-73
2021/04/29 07:32:49;;;;;;;;;;;14.30;99.90;;;;;;5092182;28;19915;-73
2021/04/29 07:35:15;;;;;;;;;;;14.60;99.90;;;;;;5092417;28;20008;-72
2021/04/29 07:37:40;;;;;;;;;;;14.90;99.90;;;;;;5091186;28;20380;-72
2021/04/29 07:40:06;;;;;;;;;;;14.90;99.90;;;;;;5092012;28;19941;-73
2021/04/29 07:42:32;;;;;;;;;;;14.90;99.90;;;;;;5091988;28;19912;-73
2021/04/29 07:44:57;;;;;;;;;;;14.90;99.90;;;;;;5091832;28;19915;-72
2021/04/29 07:47:23;;;;;;;;;;;15.20;99.90;;;;;;5091230;28;20369;-77
2021/04/29 07:49:48;;;;;;;;;;;15.60;99.90;;;;;;5091935;28;19915;-73
2021/04/29 07:52:14;;;;;;;;;;;16.10;99.90;;;;;;5091791;28;20357;-73
2021/04/29 07:54:39;;;;;;;;;;;16.40;99.90;;;;;;5091545;28;19908;-75
2021/04/29 07:57:05;;;;;;;;;;;16.60;99.90;;;;;;5091091;28;19908;-73
2021/04/29 07:59:30;;;;;;;;;;;16.70;99.90;;;;;;5090467;28;19908;-73
2021/04/29 08:01:56;;;;;;;;;;;16.70;99.90;;;;;;5091853;28;20364;-73
2021/04/29 08:04:22;;;;;;;;;;;16.70;99.90;;;;;;5091603;28;19920;-73
2021/04/29 08:06:47;;;;;;;;;;;16.60;99.00;;;;;;5090936;28;19973;-76
2021/04/29 08:09:13;;;;;;;;;;;16.40;99.90;;;;;;5091479;28;19919;-73
2021/04/29 08:11:38;;;;;;;;;;;16.20;99.90;;;;;;5091590;28;19908;-72
2021/04/29 08:14:04;;;;;;;;;;;16.20;99.90;;;;;;5091304;28;20284;-72
2021/04/29 08:16:29;;;;;;;;;;;16.40;99.90;;;;;;5090407;28;19912;-75
2021/04/29 08:18:55;;;;;;;;;;;16.70;99.80;;;;;;5090223;28;19911;-72
2021/04/29 08:21:21;;;;;;;;;;;17.20;99.90;;;;;;5091222;28;19908;-72
2021/04/29 08:23:46;;;;;;;;;;;17.70;97.80;;;;;;5091081;28;19944;-72
2021/04/29 08:26:12;;;;;;;;;;;18.10;98.20;;;;;;5090193;28;19930;-74
2021/04/29 08:28:37;;;;;;;;;;;18.30;97.10;;;;;;5083044;28;19916;-72
2021/04/29 08:31:03;;;;;;;;;;;18.50;96.90;;;;;;5091034;28;20003;-72
2021/04/29 08:33:28;;;;;;;;;;;18.70;97.10;;;;;;5091145;28;19920;-72
2021/04/29 08:35:54;;;;;;;;;;;18.60;97.20;;;;;;5090172;28;20300;-72
2021/04/29 08:38:19;;;;;;;;;;;18.40;96.10;;;;;;5090905;28;19916;-73
2021/04/29 08:40:45;;;;;;;;;;;18.10;95.50;;;;;;5088294;28;19920;-72
2021/04/29 08:43:12;;;;;;;;;;;18.00;97.50;;;;;;5090495;28;19912;-72
2021/04/29 08:45:37;;;;;;;;;;;17.90;96.30;;;;;;5090305;28;19947;-72
2021/04/29 08:48:03;;;;;;;;;;;17.70;95.60;;;;;;5090734;28;20008;-72
2021/04/29 08:50:31;;;;;;;;;;;17.40;96.40;;;;;;5089654;28;19916;-73
2021/04/29 08:52:56;;;;;;;;;;;17.00;95.80;;;;;;5093449;28;19912;-76
2021/04/29 08:55:23;;;;;;;;;;;16.50;96.30;;;;;;5090672;28;20362;-73
2021/04/29 08:57:49;;;;;;;;;;;16.30;96.90;;;;;;5088512;28;19908;-72
2021/04/29 09:00:15;;;;;;;;;;;16.10;97.00;;;;;;5090567;28;19908;-73
2021/04/29 09:02:41;;;;;;;;;;;16.00;97.40;;;;;;5090531;28;20284;-73
2021/04/29 09:05:32;;;;;;;;;;;15.80;97.90;;;;;;5090858;28;19912;-74
2021/04/29 09:07:58;;;;;;;;;;;15.80;98.00;;;;;;5090148;28;19948;-73
2021/04/29 09:10:27;;;;;;;;;;;15.80;97.70;;;;;;5090258;28;20394;-73
2021/04/29 09:12:53;;;;;;;;;;;15.70;97.60;;;;;;5090502;28;19912;-75
2021/04/29 09:15:23;;;;;;;;;;;15.70;98.60;;;;;;5090516;28;19914;-76
2021/04/29 09:18:05;;;;;;;;;;;15.80;98.60;;;;;;5089621;28;19908;-73
2021/04/29 09:20:30;;;;;;;;;;;15.90;98.30;;;;;;5090831;28;19977;-73
2021/04/29 09:22:57;;;;;;;;;;;15.90;98.20;;;;;;5090305;28;19916;-73
2021/04/29 09:25:23;;;;;;;;;;;15.90;98.60;;;;;;5090455;28;19955;-73
2021/04/29 09:27:51;;;;;;;;;;;15.90;97.80;;;;;;5088943;28;20399;-73
2021/04/29 09:30:17;;;;;;;;;;;15.80;97.70;;;;;;5090763;28;19969;-73
2021/04/29 09:32:43;;;;;;;;;;;15.50;97.80;;;;;;5092913;28;20108;-73
2021/04/29 09:35:19;;;;;;;;;;;15.30;98.10;;;;;;5093429;28;19908;-74
2021/04/29 09:37:44;;;;;;;;;;;15.20;98.00;;;;;;5093673;28;19916;-73
2021/04/29 09:40:13;;;;;;;;;;;15.10;98.50;;;;;;5092884;28;19916;-74
2021/04/29 09:42:38;;;;;;;;;;;15.00;98.80;;;;;;5094296;28;19908;-73
2021/04/29 09:45:15;;;;;;;;;;;15.00;98.90;;;;;;5094628;28;19908;-74
2021/04/29 09:47:40;;;;;;;;;;;15.10;99.00;;;;;;5093207;28;19930;-73
2021/04/29 09:50:06;;;;;;;;;;;15.10;98.90;;;;;;5094115;28;19915;-73
2021/04/29 09:52:32;;;;;;;;;;;15.20;98.90;;;;;;5094247;28;19984;-76
2021/04/29 09:55:03;;;;;;;;;;;15.30;99.50;;;;;;5093708;28;19908;-73
2021/04/29 09:57:29;;;;;;;;;;;15.40;98.70;;;;;;5092024;28;19912;-73
2021/04/29 09:59:57;;;;;;;;;;;15.70;98.80;;;;;;5107536;28;20002;-74
2021/04/29 10:02:23;;;;;;;;;;;15.90;98.30;;;;;;5113921;28;19912;-73
2021/04/29 10:04:49;;;;;;;;;;;16.10;98.10;;;;;;5114190;28;20429;-73
2021/04/29 10:07:15;;;;;;;;;;;16.30;98.60;;;;;;5113174;28;20307;-74
2021/04/29 10:09:42;;;;;;;;;;;16.40;98.10;;;;;;5113704;28;19912;-73
2021/04/29 10:12:08;;;;;;;;;;;16.40;97.70;;;;;;5114097;28;19908;-73
2021/04/29 10:14:35;;;;;;;;;;;16.50;97.80;;;;;;5113916;28;19922;-73
2021/04/29 10:17:08;;;;;;;;;;;16.50;97.90;;;;;;5112950;28;20300;-76
2021/04/29 10:19:36;;;;;;;;;;;16.90;97.60;;;;;;5113538;28;20375;-73
2021/04/29 10:22:01;;;;;;;;;;;17.20;96.20;;;;;;5113819;28;19915;-73
2021/04/29 10:24:27;;;;;;;;;;;17.20;96.20;;;;;;5112107;28;19911;-73
2021/04/29 10:27:04;;;;;;;;;;;17.20;96.80;;;;;;5112789;28;19912;-74
2021/04/29 10:29:29;;;;;;;;;;;17.00;95.80;;;;;;5092309;28;19966;-73
2021/04/29 10:31:56;;;;;;;;;;;16.60;96.00;;;;;;5093206;28;20356;-74
2021/04/29 10:34:22;;;;;;;;;;;16.40;96.20;;;;;;5093544;28;19908;-73
2021/04/29 10:36:48;;;;;;;;;;;16.10;97.20;;;;;;5092576;28;19916;-73
2021/04/29 10:39:15;;;;;;;;;;;16.00;97.60;;;;;;5093081;28;19923;-73
2021/04/29 10:41:41;;;;;;;;;;;15.90;97.70;;;;;;5091947;28;19912;-73
2021/04/29 10:44:10;;;;;;;;;;;15.90;97.50;;;;;;5092885;28;20404;-73
2021/04/29 10:46:39;;;;;;;;;;;16.00;97.30;;;;;;5092687;28;20422;-73
2021/04/29 10:49:04;;;;;;;;;;;16.30;98.00;;;;;;5093118;28;19973;-73
2021/04/29 10:51:31;;;;;;;;;;;16.50;97.30;;;;;;5093027;28;20365;-73
2021/04/29 10:54:07;;;;;;;;;;;16.80;97.30;;;;;;5091229;28;20011;-72
2021/04/29 10:56:32;;;;;;;;;;;17.20;96.00;;;;;;5091913;28;19908;-73
2021/04/29 10:59:06;;;;;;;;;;;17.50;97.40;;;;;;5091104;28;20322;-73
2021/04/29 11:01:38;;;;;;;;;;;18.20;96.80;;;;;;5092571;28;20010;-73
2021/04/29 11:04:12;;;;;;;;;;;18.80;94.70;;;;;;5092316;28;20026;-73
2021/04/29 11:06:39;;;;;;;;;;;19.20;94.40;;;;;;5091750;28;19950;-73
2021/04/29 11:09:14;;;;;;;;;;;19.80;93.70;;;;;;5091978;28;19930;-73
2021/04/29 11:11:40;;;;;;;;;;;19.90;92.50;;;;;;5092486;28;19961;-73
2021/04/29 11:14:05;;;;;;;;;;;20.00;90.80;;;;;;5092220;28;19909;-74
2021/04/29 11:16:47;;;;;;;;;;;19.80;90.60;;;;;;5090137;28;20027;-73
2021/04/29 11:19:32;;;;;;;;;;;19.60;89.00;;;;;;5091056;28;19908;-73
2021/04/29 11:22:01;;;;;;;;;;;19.20;91.00;;;;;;5092110;28;20361;-73
2021/04/29 11:24:31;;;;;;;;;;;19.00;91.20;;;;;;5092085;28;19926;-72
2021/04/29 11:26:57;;;;;;;;;;;19.10;91.00;;;;;;5091290;28;19908;-73
2021/04/29 11:29:22;;;;;;;;;;;19.30;91.10;;;;;;5090980;28;19995;-73
2021/04/29 11:31:48;;;;;;;;;;;19.90;89.50;;;;;;5092103;28;19996;-74
2021/04/29 11:34:13;;;;;;;;;;;20.00;90.70;;;;;;5091758;28;19923;-73
2021/04/29 11:36:39;;;;;;;;;;;19.90;89.70;;;;;;5091033;28;19908;-73
2021/04/29 11:39:06;;;;;;;;;;;19.60;89.20;;;;;;5091689;28;20432;-74
2021/04/29 11:41:31;;;;;;;;;;;19.00;90.00;;;;;;5092100;28;19908;-74
2021/04/29 11:43:58;;;;;;;;;;;18.40;88.70;;;;;;5091958;28;19919;-73
2021/04/29 11:46:24;;;;;;;;;;;17.80;89.00;;;;;;5092687;28;19965;-74
2021/04/29 11:48:59;;;;;;;;;;;17.40;90.50;;;;;;5093347;28;20011;-73
2021/04/29 11:51:25;;;;;;;;;;;17.10;92.00;;;;;;5093220;28;20277;-73
2021/04/29 11:53:51;;;;;;;;;;;17.00;93.20;;;;;;5092349;28;19912;-74
2021/04/29 11:56:16;;;;;;;;;;;17.00;94.00;;;;;;5089886;28;19931;-76
2021/04/29 11:58:42;;;;;;;;;;;17.10;93.40;;;;;;5090685;28;20005;-73
2021/04/29 12:01:14;;;;;;;;;;;17.10;93.40;;;;;;5088258;28;19908;-73
2021/04/29 12:03:40;;;;;;;;;;;17.30;93.40;;;;;;5091257;28;20011;-73
2021/04/29 12:06:05;;;;;;;;;;;17.50;92.90;;;;;;5090466;28;19947;-74
2021/04/29 12:08:33;;;;;;;;;;;17.70;92.20;;;;;;5091560;28;19912;-76
2021/04/29 12:10:58;;;;;;;;;;;17.60;90.80;;;;;;5091093;28;19923;-73
2021/04/29 12:13:28;;;;;;;;;;;17.50;91.50;;;;;;5091357;28;19912;-73
2021/04/29 12:15:55;;;;;;;;;;;17.50;90.60;;;;;;5090130;28;19916;-74
2021/04/29 12:18:21;;;;;;;;;;;17.30;90.20;;;;;;5091686;28;19912;-73
2021/04/29 12:20:46;;;;;;;;;;;16.90;91.50;;;;;;5092174;28;19908;-73
2021/04/29 12:23:12;;;;;;;;;;;16.80;91.10;;;;;;5091382;28;20011;-73
2021/04/29 12:25:39;;;;;;;;;;;16.40;91.40;;;;;;5090327;28;20015;-73
2021/04/29 12:28:17;;;;;;;;;;;16.20;91.50;;;;;;5089644;28;19908;-72
2021/04/29 12:30:43;;;;;;;;;;;15.80;91.40;;;;;;5083278;28;20448;-72
2021/04/29 12:33:16;;;;;;;;;;;15.20;91.70;;;;;;5091048;28;19939;-72
2021/04/29 12:35:41;;;;;;;;;;;14.80;92.50;;;;;;5090216;28;19908;-72
2021/04/29 12:38:07;;;;;;;;;;;14.60;92.80;;;;;;5090960;28;20561;-72
2021/04/29 12:40:33;;;;;;;;;;;14.50;93.50;;;;;;5090750;28;19908;-73
2021/04/29 12:43:13;;;;;;;;;;;14.50;93.10;;;;;;5089302;28;19912;-72
2021/04/29 12:45:54;;;;;;;;;;;14.20;93.20;;;;;;5088899;28;19912;-76
2021/04/29 12:48:23;;;;;;;;;;;14.00;93.40;;;;;;5090932;28;20383;-74
2021/04/29 12:50:57;;;;;;;;;;;13.80;94.20;;;;;;5089626;28;19939;-73
2021/04/29 12:53:23;;;;;;;;;;;13.60;94.20;;;;;;5090715;28;19912;-73
2021/04/29 12:55:48;;;;;;;;;;;13.40;96.20;;;;;;5089466;28;19962;-73
2021/04/29 12:58:17;;;;;;;;;;;13.20;97.30;;;;;;5089618;28;19973;-72
2021/04/29 13:00:49;;;;;;;;;;;12.90;98.80;;;;;;5102574;28;19961;-74
2021/04/29 13:03:14;;;;;;;;;;;12.80;99.90;;;;;;5111131;28;20025;-73
2021/04/29 13:05:40;;;;;;;;;;;12.70;99.10;;;;;;5111053;28;19951;-73
2021/04/29 13:08:05;;;;;;;;;;;12.60;98.80;;;;;;5114440;28;19961;-76
2021/04/29 13:10:31;;;;;;;;;;;12.50;99.90;;;;;;5115389;28;20289;-73
2021/04/29 13:12:57;;;;;;;;;;;12.50;99.90;;;;;;5115210;28;19916;-72
2021/04/29 13:15:26;;;;;;;;;;;12.70;99.90;;;;;;5115173;28;19912;-72
2021/04/29 13:17:51;;;;;;;;;;;12.70;99.80;;;;;;5114183;28;19912;-73
2021/04/29 13:20:19;;;;;;;;;;;12.80;99.70;;;;;;5114889;28;19915;-73
2021/04/29 13:22:45;;;;;;;;;;;12.90;99.90;;;;;;5114695;28;19908;-73
2021/04/29 13:25:14;;;;;;;;;;;13.00;99.80;;;;;;5114722;28;19957;-73
2021/04/29 13:27:43;;;;;;;;;;;13.10;99.90;;;;;;5108120;28;19930;-73
2021/04/29 13:30:09;;;;;;;;;;;13.20;99.90;;;;;;5094421;28;20041;-73
2021/04/29 13:32:35;;;;;;;;;;;13.40;99.90;;;;;;5093183;28;20387;-73
2021/04/29 13:35:01;;;;;;;;;;;13.80;99.90;;;;;;5092973;28;19952;-73
2021/04/29 13:37:27;;;;;;;;;;;14.40;99.20;;;;;;5093472;28;19912;-73
2021/04/29 13:39:53;;;;;;;;;;;14.70;99.90;;;;;;5094015;28;20304;-73
2021/04/29 13:42:18;;;;;;;;;;;15.20;99.50;;;;;;5094343;28;19908;-74
2021/04/29 13:44:45;;;;;;;;;;;15.70;98.30;;;;;;5094378;28;19916;-73
2021/04/29 13:47:11;;;;;;;;;;;16.10;97.00;;;;;;5093294;28;19908;-73
2021/04/29 13:49:36;;;;;;;;;;;16.70;95.80;;;;;;5093958;28;19953;-73
2021/04/29 13:52:03;;;;;;;;;;;17.00;95.30;;;;;;5094333;28;19908;-73
2021/04/29 13:54:28;;;;;;;;;;;17.40;96.10;;;;;;5093900;28;19908;-73
2021/04/29 13:56:54;;;;;;;;;;;17.70;95.20;;;;;;5093234;28;19912;-73
2021/04/29 13:59:19;;;;;;;;;;;18.10;94.20;;;;;;5092686;28;20031;-76
2021/04/29 14:01:47;;;;;;;;;;;18.30;92.90;;;;;;5093917;28;19908;-73
2021/04/29 14:04:13;;;;;;;;;;;18.30;93.00;;;;;;5092255;28;19919;-73
2021/04/29 14:06:38;;;;;;;;;;;18.20;93.10;;;;;;5093239;28;19908;-73
2021/04/29 14:09:04;;;;;;;;;;;18.20;92.80;;;;;;5093730;28;19912;-73
2021/04/29 14:11:29;;;;;;;;;;;18.20;92.20;;;;;;5093317;28;19912;-73
2021/04/29 14:13:55;;;;;;;;;;;18.00;91.90;;;;;;5093701;28;20421;-73
2021/04/29 14:16:21;;;;;;;;;;;17.70;91.60;;;;;;5092489;28;19908;-73